Time;durP1;ratioP1;P1;durP2;ratioP2;P2;SDS_P1;SDS_P2;PMS_P1;PMS_P2;Temp;Humidity;BMP_temperature;BMP_pressure;BME280_temperature;BME280_humidity;BME280_pressure;Samples;Min_cycle;Max_cycle;Signal;HPM_P1;HPM_P2
2021/04/29 00:00:48;;;;;;;15.40;8.82;;;;;;;;;;5133350;27;20039;-82
2021/04/29 00:03:14;;;;;;;12.75;8.75;;;;;;;;;;5116122;27;20434;-82
2021/04/29 00:05:40;;;;;;;18.45;9.65;;;;;;;;;;5133122;27;20393;-81
2021/04/29 00:08:06;;;;;;;14.30;8.98;;;;;;;;;;5116191;27;20114;-82
2021/04/29 00:10:32;;;;;;;17.63;9.30;;;;;;;;;;5133057;27;20054;-82
2021/04/29 00:12:58;;;;;;;17.23;9.73;;;;;;;;;;5116060;27;20031;-82
2021/04/29 00:15:24;;;;;;;16.80;9.52;;;;;;;;;;5134242;27;20050;-82
2021/04/29 00:17:50;;;;;;;14.65;9.10;;;;;;;;;;5132871;27;20032;-82
2021/04/29 00:20:17;;;;;;;17.15;9.63;;;;;;;;;;5134128;27;20368;-82
2021/04/29 00:22:43;;;;;;;15.18;9.05;;;;;;;;;;5115798;27;20466;-81
2021/04/29 00:25:09;;;;;;;15.18;9.18;;;;;;;;;;5132717;27;20122;-82
2021/04/29 00:27:35;;;;;;;12.73;9.23;;;;;;;;;;5132901;27;20126;-82
2021/04/29 00:30:01;;;;;;;16.73;8.77;;;;;;;;;;5133878;27;20483;-81
2021/04/29 00:32:27;;;;;;;18.80;9.30;;;;;;;;;;5132664;27;20039;-82
2021/04/29 00:34:53;;;;;;;15.18;9.55;;;;;;;;;;5133821;27;20031;-81
2021/04/29 00:37:20;;;;;;;14.57;9.07;;;;;;;;;;5132303;27;20043;-82
2021/04/29 00:39:46;;;;;;;14.63;9.20;;;;;;;;;;5132574;27;20445;-82
2021/04/29 00:42:12;;;;;;;13.90;8.75;;;;;;;;;;5133833;27;20038;-81
2021/04/29 00:44:38;;;;;;;12.70;8.45;;;;;;;;;;5132690;27;20035;-82
2021/04/29 00:47:04;;;;;;;15.90;9.02;;;;;;;;;;5133520;27;20039;-82
2021/04/29 00:49:30;;;;;;;15.00;10.10;;;;;;;;;;5132367;27;20042;-82
2021/04/29 00:51:56;;;;;;;15.75;9.45;;;;;;;;;;5133472;27;20113;-82
2021/04/29 00:54:22;;;;;;;18.77;9.75;;;;;;;;;;5132106;27;20082;-81
2021/04/29 00:56:48;;;;;;;20.08;9.23;;;;;;;;;;5132192;27;20050;-81
2021/04/29 00:59:15;;;;;;;14.98;8.73;;;;;;;;;;5132335;27;20039;-82
2021/04/29 01:01:41;;;;;;;18.80;9.40;;;;;;;;;;5132145;27;20415;-82
2021/04/29 01:04:08;;;;;;;16.73;9.18;;;;;;;;;;5115232;27;20133;-81
2021/04/29 01:06:38;;;;;;;14.63;9.23;;;;;;;;;;5132178;27;20046;-82
2021/04/29 01:09:09;;;;;;;15.38;9.25;;;;;;;;;;5132309;27;20471;-82
2021/04/29 01:11:35;;;;;;;16.10;9.45;;;;;;;;;;5115177;27;20035;-81
2021/04/29 01:14:03;;;;;;;13.93;9.43;;;;;;;;;;5131970;27;20501;-81
2021/04/29 01:16:29;;;;;;;15.30;8.73;;;;;;;;;;5133101;27;20130;-82
2021/04/29 01:18:55;;;;;;;15.18;9.25;;;;;;;;;;5132041;27;20110;-82
2021/04/29 01:21:22;;;;;;;14.88;9.50;;;;;;;;;;5132013;27;20042;-81
2021/04/29 01:23:55;;;;;;;17.50;10.45;;;;;;;;;;5133185;27;20035;-82
2021/04/29 01:26:22;;;;;;;16.90;9.57;;;;;;;;;;5133004;27;20035;-81
2021/04/29 01:28:48;;;;;;;18.33;10.50;;;;;;;;;;5133059;27;20031;-82
2021/04/29 01:31:14;;;;;;;16.48;10.52;;;;;;;;;;5133143;27;20545;-81
2021/04/29 01:33:40;;;;;;;16.23;11.25;;;;;;;;;;5115037;28;20106;-82
2021/04/29 01:36:06;;;;;;;16.17;9.32;;;;;;;;;;5132084;27;20070;-81
2021/04/29 01:38:33;;;;;;;16.98;10.93;;;;;;;;;;5114674;28;20047;-82
2021/04/29 01:40:59;;;;;;;17.55;10.73;;;;;;;;;;5133005;27;20043;-82
2021/04/29 01:43:25;;;;;;;17.67;11.15;;;;;;;;;;5131585;27;20442;-82
2021/04/29 01:45:52;;;;;;;18.10;11.18;;;;;;;;;;5132983;27;20042;-82
2021/04/29 01:48:18;;;;;;;18.02;11.68;;;;;;;;;;5132882;27;20035;-82
2021/04/29 01:50:44;;;;;;;20.63;11.48;;;;;;;;;;5131865;28;20035;-82
2021/04/29 01:53:10;;;;;;;17.42;11.52;;;;;;;;;;5131652;27;20478;-82
2021/04/29 01:55:36;;;;;;;18.70;10.95;;;;;;;;;;5131706;27;20043;-81
2021/04/29 01:58:02;;;;;;;17.23;10.82;;;;;;;;;;5131532;27;20538;-82
2021/04/29 02:00:28;;;;;;;17.40;10.18;;;;;;;;;;5131612;27;20490;-81
2021/04/29 02:02:54;;;;;;;17.67;10.27;;;;;;;;;;5131613;28;20505;-82
2021/04/29 02:05:20;;;;;;;15.63;10.57;;;;;;;;;;5131495;27;20048;-81
2021/04/29 02:07:46;;;;;;;19.52;10.98;;;;;;;;;;5134945;27;20039;-82
2021/04/29 02:10:12;;;;;;;19.98;10.80;;;;;;;;;;5136733;27;20102;-82
2021/04/29 02:12:40;;;;;;;18.70;10.20;;;;;;;;;;5135556;27;20035;-82
2021/04/29 02:15:08;;;;;;;22.65;11.35;;;;;;;;;;5135421;27;20080;-82
2021/04/29 02:17:46;;;;;;;15.75;10.00;;;;;;;;;;5118623;27;20047;-82
2021/04/29 02:20:13;;;;;;;17.30;10.35;;;;;;;;;;5136434;27;20474;-82
2021/04/29 02:22:39;;;;;;;16.70;9.52;;;;;;;;;;5135434;27;20031;-82
2021/04/29 02:25:06;;;;;;;15.90;9.63;;;;;;;;;;5135137;27;20054;-82
2021/04/29 02:27:33;;;;;;;19.88;10.18;;;;;;;;;;5135071;27;20119;-82
2021/04/29 02:29:59;;;;;;;14.43;9.90;;;;;;;;;;5135121;27;20043;-82
2021/04/29 02:32:25;;;;;;;19.92;10.70;;;;;;;;;;5117896;27;20047;-82
2021/04/29 02:34:51;;;;;;;19.52;9.68;;;;;;;;;;5135263;27;20396;-81
2021/04/29 02:37:17;;;;;;;14.60;8.88;;;;;;;;;;5117530;27;20051;-82
2021/04/29 02:39:44;;;;;;;15.85;9.30;;;;;;;;;;5134935;27;20389;-82
2021/04/29 02:42:11;;;;;;;16.25;10.32;;;;;;;;;;5117932;27;20122;-82
2021/04/29 02:44:37;;;;;;;17.52;10.63;;;;;;;;;;5117839;27;20031;-81
2021/04/29 02:47:03;;;;;;;17.95;10.93;;;;;;;;;;5134710;27;20450;-82
2021/04/29 02:49:29;;;;;;;18.85;11.55;;;;;;;;;;5134747;27;20047;-81
2021/04/29 02:51:55;;;;;;;19.33;10.55;;;;;;;;;;5135776;27;20444;-82
2021/04/29 02:54:22;;;;;;;19.17;11.27;;;;;;;;;;5135826;27;20035;-82
2021/04/29 02:56:48;;;;;;;21.77;11.63;;;;;;;;;;5134416;27;20085;-81
2021/04/29 02:59:14;;;;;;;18.70;11.40;;;;;;;;;;5135706;27;20379;-82
2021/04/29 03:01:42;;;;;;;19.73;12.38;;;;;;;;;;5134818;27;20035;-82
2021/04/29 03:04:08;;;;;;;19.88;11.75;;;;;;;;;;5134584;27;20126;-81
2021/04/29 03:06:35;;;;;;;21.42;11.93;;;;;;;;;;5134111;27;20073;-82
2021/04/29 03:09:01;;;;;;;19.20;12.23;;;;;;;;;;5135484;27;20217;-82
2021/04/29 03:11:27;;;;;;;21.75;13.43;;;;;;;;;;5134409;27;20042;-82
2021/04/29 03:13:53;;;;;;;18.58;11.55;;;;;;;;;;5134204;27;20027;-82
2021/04/29 03:16:19;;;;;;;21.45;13.80;;;;;;;;;;5134273;27;20100;-82
2021/04/29 03:18:45;;;;;;;21.15;13.10;;;;;;;;;;5135380;27;20169;-82
2021/04/29 03:21:11;;;;;;;24.75;14.32;;;;;;;;;;5135318;27;20113;-82
2021/04/29 03:23:38;;;;;;;23.90;14.73;;;;;;;;;;5135224;27;20039;-82
2021/04/29 03:26:04;;;;;;;22.83;14.48;;;;;;;;;;5133944;27;20059;-83
2021/04/29 03:28:30;;;;;;;23.67;14.35;;;;;;;;;;5134003;27;20039;-82
2021/04/29 03:30:57;;;;;;;23.20;14.70;;;;;;;;;;5133914;27;20390;-82
2021/04/29 03:33:23;;;;;;;23.25;13.27;;;;;;;;;;5133927;27;20032;-81
2021/04/29 03:35:49;;;;;;;26.50;15.70;;;;;;;;;;5133692;27;20131;-82
2021/04/29 03:38:15;;;;;;;22.67;14.95;;;;;;;;;;5134727;27;20043;-82
2021/04/29 03:40:42;;;;;;;25.35;14.27;;;;;;;;;;5133915;27;20108;-81
2021/04/29 03:43:08;;;;;;;25.30;15.02;;;;;;;;;;5133695;27;20039;-81
2021/04/29 03:45:34;;;;;;;27.27;15.30;;;;;;;;;;5133578;27;20039;-82
2021/04/29 03:48:00;;;;;;;29.25;15.80;;;;;;;;;;5134733;27;20045;-81
2021/04/29 03:50:27;;;;;;;26.52;16.08;;;;;;;;;;5134563;27;20035;-81
2021/04/29 03:52:53;;;;;;;24.77;14.45;;;;;;;;;;5134780;27;20038;-82
2021/04/29 03:55:19;;;;;;;27.63;14.65;;;;;;;;;;5134676;27;20050;-81
2021/04/29 03:57:45;;;;;;;27.02;15.77;;;;;;;;;;5116437;27;20039;-82
2021/04/29 04:00:11;;;;;;;23.33;15.45;;;;;;;;;;5133478;27;20062;-83
2021/04/29 04:02:39;;;;;;;23.35;15.18;;;;;;;;;;5134508;27;20031;-82
2021/04/29 04:05:05;;;;;;;27.10;16.02;;;;;;;;;;5133089;27;20039;-81
2021/04/29 04:07:31;;;;;;;32.00;16.98;;;;;;;;;;5134264;27;20035;-81
2021/04/29 04:09:57;;;;;;;26.58;16.63;;;;;;;;;;5134277;27;20069;-81
2021/04/29 04:12:23;;;;;;;27.90;15.38;;;;;;;;;;5134236;27;20027;-81
2021/04/29 04:14:49;;;;;;;28.30;16.90;;;;;;;;;;5134210;27;20035;-81
2021/04/29 04:17:15;;;;;;;28.13;16.17;;;;;;;;;;5133050;27;20031;-81
2021/04/29 04:19:41;;;;;;;28.48;16.95;;;;;;;;;;5133056;27;20436;-81
2021/04/29 04:22:07;;;;;;;27.45;15.70;;;;;;;;;;5132905;27;20031;-82
2021/04/29 04:24:33;;;;;;;25.63;15.45;;;;;;;;;;5132720;27;20039;-82
2021/04/29 04:26:59;;;;;;;26.23;15.02;;;;;;;;;;5132641;27;20039;-82
2021/04/29 04:29:26;;;;;;;23.42;14.07;;;;;;;;;;5115277;27;20036;-81
2021/04/29 04:31:51;;;;;;;29.40;15.88;;;;;;;;;;5132824;27;20074;-81
2021/04/29 04:34:18;;;;;;;26.17;15.63;;;;;;;;;;5132687;27;20410;-81
2021/04/29 04:36:44;;;;;;;25.10;15.50;;;;;;;;;;5133669;27;20114;-81
2021/04/29 04:39:10;;;;;;;24.25;14.63;;;;;;;;;;5133898;27;20062;-81
2021/04/29 04:41:36;;;;;;;27.23;15.13;;;;;;;;;;5133739;27;20487;-82
2021/04/29 04:44:02;;;;;;;24.63;14.98;;;;;;;;;;5132487;27;20031;-82
2021/04/29 04:46:28;;;;;;;25.60;15.20;;;;;;;;;;5115334;27;20464;-82
2021/04/29 04:48:54;;;;;;;25.10;15.20;;;;;;;;;;5132476;27;20115;-81
2021/04/29 04:51:20;;;;;;;25.58;14.43;;;;;;;;;;5133620;27;20034;-82
2021/04/29 04:53:46;;;;;;;25.23;15.43;;;;;;;;;;5115466;27;20485;-81
2021/04/29 04:56:13;;;;;;;24.55;13.73;;;;;;;;;;5132382;27;20092;-82
2021/04/29 04:58:39;;;;;;;23.83;15.20;;;;;;;;;;5132234;27;20039;-82
2021/04/29 05:01:05;;;;;;;24.30;15.95;;;;;;;;;;5115087;27;20126;-82
2021/04/29 05:03:31;;;;;;;24.92;14.57;;;;;;;;;;5132232;27;20067;-83
2021/04/29 05:05:58;;;;;;;26.92;15.73;;;;;;;;;;5132101;27;20067;-83
2021/04/29 05:08:24;;;;;;;27.27;16.38;;;;;;;;;;5131296;27;20088;-83
2021/04/29 05:10:50;;;;;;;28.25;16.42;;;;;;;;;;5112753;27;20590;-83
2021/04/29 05:13:16;;;;;;;26.63;17.70;;;;;;;;;;5133183;27;20177;-82
2021/04/29 05:15:42;;;;;;;27.70;17.15;;;;;;;;;;5131579;27;20118;-83
2021/04/29 05:18:08;;;;;;;33.85;18.58;;;;;;;;;;5131886;27;20039;-82
2021/04/29 05:20:34;;;;;;;34.58;19.60;;;;;;;;;;5133114;27;20083;-82
2021/04/29 05:23:00;;;;;;;30.48;19.30;;;;;;;;;;5131936;27;20027;-81
2021/04/29 05:25:26;;;;;;;32.33;18.67;;;;;;;;;;5131869;27;20051;-82
2021/04/29 05:27:53;;;;;;;33.60;19.23;;;;;;;;;;5131890;28;20379;-82
2021/04/29 05:30:19;;;;;;;32.17;18.63;;;;;;;;;;5131784;28;20119;-82
2021/04/29 05:32:46;;;;;;;34.85;19.55;;;;;;;;;;5133175;27;20031;-82
2021/04/29 05:35:12;;;;;;;32.90;19.58;;;;;;;;;;5130707;28;20039;-82
2021/04/29 05:37:38;;;;;;;31.58;19.00;;;;;;;;;;5131431;28;20402;-82
2021/04/29 05:40:05;;;;;;;36.55;21.02;;;;;;;;;;5132988;27;20535;-82
2021/04/29 05:42:31;;;;;;;33.15;20.77;;;;;;;;;;5133857;27;20039;-82
2021/04/29 05:44:58;;;;;;;36.30;22.00;;;;;;;;;;5135723;27;20035;-82
2021/04/29 05:47:23;;;;;;;44.75;22.90;;;;;;;;;;5136998;27;20039;-81
2021/04/29 05:49:50;;;;;;;35.72;21.52;;;;;;;;;;5135855;27;20049;-83
2021/04/29 05:52:16;;;;;;;34.80;20.27;;;;;;;;;;5136008;27;20552;-83
2021/04/29 05:54:42;;;;;;;35.60;20.55;;;;;;;;;;5135855;27;20103;-83
2021/04/29 05:57:08;;;;;;;32.83;20.20;;;;;;;;;;5118555;27;20043;-83
2021/04/29 05:59:34;;;;;;;33.15;18.70;;;;;;;;;;5135433;27;20046;-84
2021/04/29 06:02:00;;;;;;;32.13;19.67;;;;;;;;;;5135654;27;20034;-84
2021/04/29 06:04:26;;;;;;;31.65;19.15;;;;;;;;;;5136868;27;20038;-82
2021/04/29 06:06:52;;;;;;;33.70;19.73;;;;;;;;;;5135390;27;20482;-82
2021/04/29 06:09:18;;;;;;;36.58;20.05;;;;;;;;;;5135607;27;20096;-81
2021/04/29 06:11:44;;;;;;;28.10;19.40;;;;;;;;;;5135875;27;20043;-82
2021/04/29 06:14:12;;;;;;;30.10;18.77;;;;;;;;;;5136423;27;20035;-81
2021/04/29 06:16:38;;;;;;;22.40;14.38;;;;;;;;;;5136535;27;20046;-82
2021/04/29 06:19:04;;;;;;;35.72;20.85;;;;;;;;;;5135343;27;20035;-81
2021/04/29 06:21:30;;;;;;;32.95;19.67;;;;;;;;;;5136451;27;20035;-80
2021/04/29 06:23:56;;;;;;;34.20;20.17;;;;;;;;;;5135218;27;20041;-81
2021/04/29 06:26:22;;;;;;;35.67;20.73;;;;;;;;;;5134944;27;20038;-82
2021/04/29 06:28:48;;;;;;;33.15;20.40;;;;;;;;;;5136329;27;20440;-80
2021/04/29 06:31:14;;;;;;;39.10;21.35;;;;;;;;;;5135059;27;20032;-81
2021/04/29 06:33:40;;;;;;;32.35;20.63;;;;;;;;;;5136232;27;20035;-81
2021/04/29 06:36:06;;;;;;;31.95;20.40;;;;;;;;;;5134929;27;20102;-81
2021/04/29 06:38:36;;;;;;;34.22;19.67;;;;;;;;;;5135324;27;20098;-81
2021/04/29 06:41:02;;;;;;;29.13;18.05;;;;;;;;;;5133836;28;20039;-81
2021/04/29 06:43:29;;;;;;;33.85;20.42;;;;;;;;;;5134702;27;20039;-81
2021/04/29 06:45:55;;;;;;;30.00;17.75;;;;;;;;;;5133417;28;20122;-81
2021/04/29 06:48:21;;;;;;;30.85;20.42;;;;;;;;;;5132451;28;20047;-82
2021/04/29 06:50:48;;;;;;;29.65;18.67;;;;;;;;;;5134804;27;20088;-81
2021/04/29 06:53:14;;;;;;;29.77;18.95;;;;;;;;;;5133100;27;20447;-81
2021/04/29 06:55:40;;;;;;;29.00;18.60;;;;;;;;;;5116257;28;20066;-82
2021/04/29 06:58:06;;;;;;;32.47;19.20;;;;;;;;;;5133300;28;20500;-81
2021/04/29 07:00:33;;;;;;;27.38;18.88;;;;;;;;;;5088776;27;20091;-81
2021/04/29 07:02:59;;;;;;;27.95;18.20;;;;;;;;;;5053097;28;20229;-82
2021/04/29 07:05:26;;;;;;;31.30;20.38;;;;;;;;;;5051042;28;20069;-81
2021/04/29 07:07:52;;;;;;;29.23;19.10;;;;;;;;;;5053194;28;20342;-81
2021/04/29 07:10:18;;;;;;;30.20;19.52;;;;;;;;;;5035121;28;20037;-81
2021/04/29 07:12:44;;;;;;;31.30;18.13;;;;;;;;;;5035310;28;20549;-82
2021/04/29 07:15:10;;;;;;;32.88;18.92;;;;;;;;;;5052973;28;20033;-82
2021/04/29 07:17:36;;;;;;;35.50;19.55;;;;;;;;;;5052822;28;20480;-81
2021/04/29 07:20:03;;;;;;;30.90;19.95;;;;;;;;;;5052940;28;20111;-81
2021/04/29 07:22:29;;;;;;;36.38;19.92;;;;;;;;;;5052815;28;20122;-81
2021/04/29 07:24:55;;;;;;;31.35;18.75;;;;;;;;;;5052802;28;20072;-81
2021/04/29 07:27:21;;;;;;;34.55;19.73;;;;;;;;;;5051638;28;20041;-81
2021/04/29 07:29:47;;;;;;;33.38;20.80;;;;;;;;;;5051703;28;20119;-82
2021/04/29 07:32:13;;;;;;;30.27;19.35;;;;;;;;;;5052823;28;20480;-81
2021/04/29 07:34:39;;;;;;;30.75;19.80;;;;;;;;;;5052837;28;20041;-81
2021/04/29 07:37:05;;;;;;;27.60;18.60;;;;;;;;;;5032974;28;556708;-82
2021/04/29 07:39:31;;;;;;;22.80;14.10;;;;;;;;;;5053741;28;20032;-82
2021/04/29 07:41:57;;;;;;;30.95;20.15;;;;;;;;;;5052566;28;20120;-82
2021/04/29 07:44:24;;;;;;;33.40;21.08;;;;;;;;;;5052564;28;20431;-80
2021/04/29 07:46:50;;;;;;;35.92;20.67;;;;;;;;;;5052532;28;20051;-80
2021/04/29 07:49:16;;;;;;;32.20;19.20;;;;;;;;;;5052353;28;20068;-81
2021/04/29 07:51:42;;;;;;;28.30;17.88;;;;;;;;;;5053598;28;20045;-81
2021/04/29 07:54:08;;;;;;;35.83;20.02;;;;;;;;;;5052261;28;20041;-82
2021/04/29 07:56:34;;;;;;;32.80;19.73;;;;;;;;;;5053374;28;20075;-81
2021/04/29 07:59:00;;;;;;;36.00;19.35;;;;;;;;;;5052298;28;20477;-82
2021/04/29 08:01:26;;;;;;;31.20;20.00;;;;;;;;;;5053374;28;20438;-81
2021/04/29 08:03:53;;;;;;;24.73;17.88;;;;;;;;;;5052942;28;20522;-82
2021/04/29 08:06:19;;;;;;;26.73;16.83;;;;;;;;;;5052871;28;20037;-82
2021/04/29 08:08:45;;;;;;;26.67;16.20;;;;;;;;;;5051972;28;20185;-82
2021/04/29 08:11:15;;;;;;;26.10;16.60;;;;;;;;;;5052005;28;20037;-82
2021/04/29 08:13:41;;;;;;;31.58;18.35;;;;;;;;;;5051788;28;20045;-82
2021/04/29 08:16:07;;;;;;;26.75;16.60;;;;;;;;;;5051789;28;20098;-82
2021/04/29 08:18:33;;;;;;;32.50;20.40;;;;;;;;;;5051851;28;20064;-82
2021/04/29 08:20:59;;;;;;;34.17;21.27;;;;;;;;;;5051771;28;20041;-82
2021/04/29 08:23:25;;;;;;;38.75;23.10;;;;;;;;;;5051629;28;20043;-82
2021/04/29 08:25:51;;;;;;;50.58;25.42;;;;;;;;;;5051895;28;20208;-82
2021/04/29 08:28:17;;;;;;;40.88;23.10;;;;;;;;;;5052868;28;20118;-82
2021/04/29 08:30:43;;;;;;;44.58;23.13;;;;;;;;;;5051634;28;20488;-82
2021/04/29 08:33:09;;;;;;;49.65;24.88;;;;;;;;;;5051569;28;20120;-82
2021/04/29 08:35:35;;;;;;;126.88;35.97;;;;;;;;;;5052648;28;20037;-81
2021/04/29 08:38:01;;;;;;;63.53;27.48;;;;;;;;;;5052512;28;20060;-81
2021/04/29 08:40:29;;;;;;;60.58;23.08;;;;;;;;;;5052735;28;20045;-81
2021/04/29 08:42:55;;;;;;;45.08;20.95;;;;;;;;;;5051462;28;20043;-81
2021/04/29 08:45:23;;;;;;;38.15;21.27;;;;;;;;;;5051465;28;20098;-80
2021/04/29 08:47:53;;;;;;;31.80;19.58;;;;;;;;;;5051326;28;20049;-80
2021/04/29 08:50:19;;;;;;;28.88;17.83;;;;;;;;;;5052305;28;20128;-80
2021/04/29 08:52:45;;;;;;;31.35;17.08;;;;;;;;;;5051221;28;20037;-80
2021/04/29 08:55:18;;;;;;;28.20;18.33;;;;;;;;;;5051179;28;20103;-80
2021/04/29 08:57:44;;;;;;;28.02;18.42;;;;;;;;;;5052213;28;20044;-80
2021/04/29 09:00:11;;;;;;;28.98;18.98;;;;;;;;;;5052275;28;20112;-80
2021/04/29 09:02:37;;;;;;;29.70;19.00;;;;;;;;;;5051050;28;20086;-80
2021/04/29 09:05:19;;;;;;;27.92;18.05;;;;;;;;;;5034533;28;20396;-80
2021/04/29 09:08:05;;;;;;;25.33;18.75;;;;;;;;;;5050944;28;20123;-79
2021/04/29 09:10:37;;;;;;;25.35;18.90;;;;;;;;;;5052139;28;20044;-80
2021/04/29 09:13:16;;;;;;;36.28;22.80;;;;;;;;;;5052145;28;20033;-82
2021/04/29 09:15:42;;;;;;;30.67;20.63;;;;;;;;;;5051967;28;20069;-82
2021/04/29 09:18:16;;;;;;;34.97;21.50;;;;;;;;;;5050783;28;20083;-82
2021/04/29 09:20:58;;;;;;;28.55;18.15;;;;;;;;;;5052023;28;20040;-82
2021/04/29 09:23:24;;;;;;;28.23;19.10;;;;;;;;;;5051091;28;20094;-81
2021/04/29 09:25:54;;;;;;;32.00;17.33;;;;;;;;;;5050781;28;20041;-82
2021/04/29 09:28:21;;;;;;;26.17;18.48;;;;;;;;;;5047438;28;20095;-82
2021/04/29 09:30:47;;;;;;;26.42;17.70;;;;;;;;;;5050575;28;20354;-82
2021/04/29 09:33:13;;;;;;;28.65;17.85;;;;;;;;;;5051205;28;20108;-82
2021/04/29 09:35:40;;;;;;;32.72;19.65;;;;;;;;;;5051823;28;20489;-83
2021/04/29 09:38:11;;;;;;;29.70;17.85;;;;;;;;;;5050242;28;20057;-84
2021/04/29 09:40:40;;;;;;;34.20;21.38;;;;;;;;;;5050521;28;20075;-82
2021/04/29 09:43:07;;;;;;;34.90;20.75;;;;;;;;;;5034520;28;20442;-82
2021/04/29 09:45:35;;;;;;;36.25;22.20;;;;;;;;;;5030966;28;20049;-81
2021/04/29 09:48:19;;;;;;;35.95;22.88;;;;;;;;;;5031742;28;20112;-82
2021/04/29 09:50:48;;;;;;;29.95;20.58;;;;;;;;;;5031850;28;20034;-82
2021/04/29 09:53:14;;;;;;;36.50;22.50;;;;;;;;;;5031898;28;20060;-84
2021/04/29 09:55:41;;;;;;;35.35;21.77;;;;;;;;;;5030547;28;20550;-82
2021/04/29 09:58:14;;;;;;;35.60;22.50;;;;;;;;;;5030541;28;20033;-83
2021/04/29 10:00:40;;;;;;;41.58;24.08;;;;;;;;;;5047111;28;20090;-83
2021/04/29 10:03:06;;;;;;;39.95;24.25;;;;;;;;;;5031627;28;20495;-83
2021/04/29 10:05:37;;;;;;;44.40;24.88;;;;;;;;;;5031811;28;20448;-83
2021/04/29 10:08:03;;;;;;;43.58;25.20;;;;;;;;;;5031664;28;20041;-82
2021/04/29 10:10:30;;;;;;;42.22;25.42;;;;;;;;;;5030378;28;20095;-82
2021/04/29 10:12:56;;;;;;;43.90;27.52;;;;;;;;;;5041506;28;20107;-83
2021/04/29 10:15:22;;;;;;;41.97;25.42;;;;;;;;;;5050390;28;20488;-83
2021/04/29 10:17:48;;;;;;;47.50;26.95;;;;;;;;;;5051246;28;20095;-81
2021/04/29 10:20:14;;;;;;;40.92;25.05;;;;;;;;;;5051443;28;20037;-82
2021/04/29 10:22:41;;;;;;;41.25;26.80;;;;;;;;;;5050269;28;20043;-82
2021/04/29 10:25:07;;;;;;;41.42;26.00;;;;;;;;;;5050207;28;20507;-82
2021/04/29 10:27:33;;;;;;;40.80;25.10;;;;;;;;;;5051553;28;20480;-82
2021/04/29 10:30:02;;;;;;;39.67;23.73;;;;;;;;;;5053803;28;20048;-81
2021/04/29 10:32:31;;;;;;;40.10;23.92;;;;;;;;;;5054900;28;20037;-82
2021/04/29 10:34:57;;;;;;;34.88;23.15;;;;;;;;;;5037334;28;20111;-83
2021/04/29 10:37:26;;;;;;;34.38;22.50;;;;;;;;;;5053745;28;20484;-83
2021/04/29 10:39:52;;;;;;;33.97;22.42;;;;;;;;;;5053975;28;20045;-83
2021/04/29 10:42:19;;;;;;;37.45;24.02;;;;;;;;;;5054802;28;20033;-83
2021/04/29 10:44:46;;;;;;;32.72;20.30;;;;;;;;;;5053551;28;20112;-83
2021/04/29 10:47:26;;;;;;;43.15;25.50;;;;;;;;;;5054769;28;20095;-83
2021/04/29 10:49:52;;;;;;;37.15;22.65;;;;;;;;;;5037012;28;20037;-83
2021/04/29 10:52:18;;;;;;;36.65;23.15;;;;;;;;;;5052886;28;20037;-83
2021/04/29 10:54:51;;;;;;;36.00;22.27;;;;;;;;;;5053122;28;20495;-83
2021/04/29 10:57:17;;;;;;;37.90;22.98;;;;;;;;;;5054416;28;20045;-82
2021/04/29 10:59:45;;;;;;;42.20;26.15;;;;;;;;;;5053271;28;20443;-82
2021/04/29 11:02:27;;;;;;;43.45;25.58;;;;;;;;;;5053415;28;20044;-82
2021/04/29 11:04:53;;;;;;;43.25;25.42;;;;;;;;;;5053230;28;20040;-82
2021/04/29 11:07:20;;;;;;;40.45;23.92;;;;;;;;;;5053019;28;20095;-83
2021/04/29 11:09:59;;;;;;;33.90;22.70;;;;;;;;;;5054232;28;20045;-83
2021/04/29 11:12:40;;;;;;;41.60;25.92;;;;;;;;;;5053309;28;20037;-83
2021/04/29 11:15:06;;;;;;;41.92;25.13;;;;;;;;;;5054277;28;20087;-83
2021/04/29 11:17:32;;;;;;;44.80;26.50;;;;;;;;;;5054025;28;20067;-82
2021/04/29 11:19:58;;;;;;;43.30;26.58;;;;;;;;;;5036573;28;20477;-83
2021/04/29 11:22:29;;;;;;;38.92;24.95;;;;;;;;;;5036406;28;20033;-83
2021/04/29 11:24:56;;;;;;;43.65;26.77;;;;;;;;;;5053014;28;20078;-83
2021/04/29 11:27:32;;;;;;;46.47;26.98;;;;;;;;;;5053800;28;20045;-83
2021/04/29 11:30:08;;;;;;;37.13;24.15;;;;;;;;;;5054044;28;20041;-83
2021/04/29 11:32:35;;;;;;;41.28;25.63;;;;;;;;;;5052708;28;20033;-82
2021/04/29 11:35:02;;;;;;;37.15;22.45;;;;;;;;;;5052579;28;20063;-82
2021/04/29 11:37:32;;;;;;;97.53;57.25;;;;;;;;;;5053712;28;20099;-82
2021/04/29 11:39:59;;;;;;;63.70;40.75;;;;;;;;;;5051478;28;20470;-82
2021/04/29 11:42:29;;;;;;;47.78;30.00;;;;;;;;;;5052690;28;20079;-82
2021/04/29 11:45:05;;;;;;;50.30;29.58;;;;;;;;;;5052640;28;20455;-82
2021/04/29 11:47:31;;;;;;;50.65;30.83;;;;;;;;;;5052256;28;20040;-82
2021/04/29 11:49:57;;;;;;;49.00;28.38;;;;;;;;;;5052566;28;20040;-82
2021/04/29 11:52:24;;;;;;;47.65;31.70;;;;;;;;;;5052356;28;20029;-82
2021/04/29 11:54:50;;;;;;;56.20;30.23;;;;;;;;;;5019518;28;20055;-83
2021/04/29 11:57:16;;;;;;;45.70;28.80;;;;;;;;;;5052151;28;20067;-81
2021/04/29 11:59:42;;;;;;;52.38;29.52;;;;;;;;;;5053373;28;20492;-81
2021/04/29 12:02:08;;;;;;;49.50;29.77;;;;;;;;;;5035581;28;20039;-82
2021/04/29 12:04:34;;;;;;;60.88;33.92;;;;;;;;;;5052022;28;20041;-81
2021/04/29 12:07:02;;;;;;;54.40;31.45;;;;;;;;;;5052044;28;20036;-81
2021/04/29 12:09:28;;;;;;;59.03;32.67;;;;;;;;;;5052211;28;20134;-82
2021/04/29 12:11:54;;;;;;;50.10;30.83;;;;;;;;;;5053235;28;20047;-81
2021/04/29 12:14:27;;;;;;;57.63;33.60;;;;;;;;;;5051841;28;20040;-82
2021/04/29 12:16:53;;;;;;;;;;;;;;;;;;5053419;28;20124;-82
2021/04/29 12:19:25;;;;;;;52.30;29.38;;;;;;;;;;5051707;28;19931;-82
2021/04/29 12:21:52;;;;;;;47.67;28.10;;;;;;;;;;5051611;28;20146;-83
2021/04/29 12:24:18;;;;;;;45.22;27.42;;;;;;;;;;5051638;28;20032;-83
2021/04/29 12:26:44;;;;;;;46.60;26.83;;;;;;;;;;5046787;28;20208;-83
2021/04/29 12:29:11;;;;;;;46.13;27.92;;;;;;;;;;5052814;28;20325;-83
2021/04/29 12:31:37;;;;;;;40.20;25.33;;;;;;;;;;5051675;28;20029;-82
2021/04/29 12:34:05;;;;;;;40.33;23.40;;;;;;;;;;5051637;28;20087;-83
2021/04/29 12:36:48;;;;;;;52.95;29.92;;;;;;;;;;5035005;28;20041;-83
2021/04/29 12:39:15;;;;;;;45.63;26.40;;;;;;;;;;5035176;28;20045;-84
2021/04/29 12:41:42;;;;;;;43.78;25.90;;;;;;;;;;5051259;28;20037;-84
2021/04/29 12:44:08;;;;;;;32.55;21.70;;;;;;;;;;5051361;28;20467;-83
2021/04/29 12:46:38;;;;;;;35.50;23.30;;;;;;;;;;5051235;28;20072;-82
2021/04/29 12:49:05;;;;;;;29.00;18.85;;;;;;;;;;5051274;28;20499;-82
2021/04/29 12:51:31;;;;;;;26.98;17.20;;;;;;;;;;5034454;28;20037;-83
2021/04/29 12:54:10;;;;;;;33.15;21.05;;;;;;;;;;5051507;28;20044;-83
2021/04/29 12:56:37;;;;;;;28.40;18.75;;;;;;;;;;5035106;28;20048;-82
2021/04/29 12:59:10;;;;;;;44.65;20.75;;;;;;;;;;5051047;28;20045;-81
2021/04/29 13:01:36;;;;;;;35.08;14.95;;;;;;;;;;5051149;28;20029;-81
2021/04/29 13:04:03;;;;;;;35.00;16.13;;;;;;;;;;5051022;28;20112;-81
2021/04/29 13:06:29;;;;;;;33.30;18.33;;;;;;;;;;5052046;28;20477;-82
2021/04/29 13:08:55;;;;;;;27.10;17.73;;;;;;;;;;5052161;28;20063;-82
2021/04/29 13:11:28;;;;;;;51.60;19.40;;;;;;;;;;5050942;28;20082;-82
2021/04/29 13:13:54;;;;;;;;;;;;;;;;;;5052523;28;20040;-80
2021/04/29 13:16:27;;;;;;;30.77;19.20;;;;;;;;;;5052027;28;20376;-82
2021/04/29 13:18:53;;;;;;;;;;;;;;;;;;5051169;28;20040;-81
2021/04/29 13:21:19;;;;;;;39.88;24.52;;;;;;;;;;5050716;28;20299;-83
2021/04/29 13:23:45;;;;;;;40.58;25.20;;;;;;;;;;5052051;28;20068;-83
2021/04/29 13:26:14;;;;;;;41.15;24.95;;;;;;;;;;5050269;28;20079;-83
2021/04/29 13:28:41;;;;;;;37.78;23.83;;;;;;;;;;5034261;28;20041;-83
2021/04/29 13:31:07;;;;;;;33.90;22.52;;;;;;;;;;5050633;28;20071;-83
2021/04/29 13:33:33;;;;;;;32.58;21.33;;;;;;;;;;5030762;28;20065;-82
2021/04/29 13:35:59;;;;;;;29.83;19.98;;;;;;;;;;5031946;28;20619;-83
2021/04/29 13:38:25;;;;;;;27.80;19.20;;;;;;;;;;5040547;28;20562;-83
2021/04/29 13:40:51;;;;;;;25.08;17.33;;;;;;;;;;5051913;28;20325;-83
2021/04/29 13:43:17;;;;;;;23.55;15.05;;;;;;;;;;5051817;28;20037;-83
2021/04/29 13:45:45;;;;;;;18.05;12.20;;;;;;;;;;5050635;28;20036;-83
2021/04/29 13:48:11;;;;;;;16.42;11.82;;;;;;;;;;5033725;28;20048;-83
2021/04/29 13:50:39;;;;;;;17.83;11.75;;;;;;;;;;5051360;28;20417;-83
2021/04/29 13:53:05;;;;;;;18.85;12.68;;;;;;;;;;5050549;28;20037;-83
2021/04/29 13:55:31;;;;;;;19.60;12.55;;;;;;;;;;5050599;28;20041;-83
2021/04/29 13:57:57;;;;;;;18.92;12.13;;;;;;;;;;5033835;28;20037;-84
2021/04/29 14:00:23;;;;;;;16.10;11.48;;;;;;;;;;5051663;28;20052;-84
2021/04/29 14:02:49;;;;;;;16.40;11.57;;;;;;;;;;5052328;28;20037;-84
2021/04/29 14:05:15;;;;;;;16.95;10.93;;;;;;;;;;5054368;28;20507;-83
2021/04/29 14:07:41;;;;;;;18.90;12.02;;;;;;;;;;5055388;28;20041;-83
2021/04/29 14:10:07;;;;;;;20.50;12.50;;;;;;;;;;5054283;28;20041;-84
2021/04/29 14:12:33;;;;;;;18.13;11.95;;;;;;;;;;5054269;28;20487;-84
2021/04/29 14:14:59;;;;;;;19.80;12.65;;;;;;;;;;5055437;28;20037;-85
2021/04/29 14:17:25;;;;;;;20.63;13.00;;;;;;;;;;5055130;28;20049;-83